Terminal Aerodrome Forecast
Issued by NWS

Home | Current Version | Previous Version | Text Only | Print | Product List | Glossary On
Versions: 1 2 3 4 5 6 7 8 9 10 11 12 13 14
000
FTUS42 TJSJ 240500 RRA
TAFNCM
TAF
TNCM 240544Z 2406/2506 09010KT P6SM VCSH SCT020
     FM241000 10013G25KT P6SM VCTS BKN019CB
     FM241600 07015G25KT P6SM SHRA BKN015 BKN030=

USA.gov is the U.S. government's official web portal to all federal, state and local government web resources and services.